Terminal Aerodrome Forecast
Issued by NWS

Home | Current Version | Previous Version | Graphics & Text | Print | Product List | Glossary On
Versions: 1 2 3 4 5 6 7 8 9 10 11 12 13
992
FTUS43 KICT 202322
TAFHUT
TAF
KHUT 202322Z 2100/2124 05008KT P6SM FEW200
     FM210700 07006KT P6SM BKN100
     FM211400 07011KT 6SM -SHRA VCTS BKN035CB
     FM211900 07014G22KT 6SM -SHRA VCTS OVC020CB=

USA.gov is the U.S. government's official web portal to all federal, state and local government web resources and services.